Terminal Aerodrome Forecast
Issued by NWS St Louis, MO

Home | Current Version | Previous Version | Graphics & Text | Print | Product List | Glossary On
Versions: 1 2 3 4 5 6 7 8 9 10 11 12 13 14 15 16 17 18 19 20 21 22 23 24 25 26 27 28 29 30 31 32 33 34
000
FTUS43 KLSX 272124 AAD
TAFSTL
TAF AMD
KSTL 272124Z 2721/2824 06008KT 6SM -TSRA BKN040CB
      TEMPO 2722/2724 VRB20G45KT 1SM +TSRA OVC020CB
     FM280100 14007KT P6SM VCTS BKN040CB
     FM280300 18007KT P6SM OVC080
     FM281000 25005KT 5SM BR BKN020
     FM281600 29007KT P6SM BKN035=

USA.gov is the U.S. government's official web portal to all federal, state and local government web resources and services.